sensor_id;sensor_type;location;lat;lon;timestamp;pressure;altitude;pressure_sealevel;temperature;humidity
45327;BME280;31062;49.678;24.560;2023-04-21T00:01:43;98111.72;;;10.17;62.46
45327;BME280;31062;49.678;24.560;2023-04-21T00:04:28;98123.84;;;10.32;62.68
45327;BME280;31062;49.678;24.560;2023-04-21T00:07:14;98091.50;;;10.07;62.71
45327;BME280;31062;49.678;24.560;2023-04-21T00:10:00;98126.34;;;10.37;62.50
45327;BME280;31062;49.678;24.560;2023-04-21T00:12:46;98091.81;;;10.11;62.55
45327;BME280;31062;49.678;24.560;2023-04-21T00:15:32;97977.94;;;9.34;62.76
45327;BME280;31062;49.678;24.560;2023-04-21T00:18:17;98111.91;;;10.29;62.99
45327;BME280;31062;49.678;24.560;2023-04-21T00:21:03;97981.31;;;9.42;62.02
45327;BME280;31062;49.678;24.560;2023-04-21T00:23:48;98122.59;;;10.42;61.83
45327;BME280;31062;49.678;24.560;2023-04-21T00:26:34;98115.00;;;10.43;61.66
45327;BME280;31062;49.678;24.560;2023-04-21T00:29:20;98121.72;;;10.40;60.71
45327;BME280;31062;49.678;24.560;2023-04-21T00:32:06;98123.59;;;10.37;60.53
45327;BME280;31062;49.678;24.560;2023-04-21T00:34:55;98058.19;;;9.88;59.90
45327;BME280;31062;49.678;24.560;2023-04-21T00:37:41;98078.66;;;10.02;60.31
45327;BME280;31062;49.678;24.560;2023-04-21T00:40:28;98107.28;;;10.14;60.09
45327;BME280;31062;49.678;24.560;2023-04-21T00:43:14;97947.56;;;9.00;60.34
45327;BME280;31062;49.678;24.560;2023-04-21T00:45:59;97926.31;;;8.93;60.29
45327;BME280;31062;49.678;24.560;2023-04-21T00:48:45;97943.19;;;8.97;59.90
45327;BME280;31062;49.678;24.560;2023-04-21T00:51:32;97928.91;;;8.91;59.91
45327;BME280;31062;49.678;24.560;2023-04-21T00:54:18;97991.09;;;9.43;60.31
45327;BME280;31062;49.678;24.560;2023-04-21T00:57:04;98105.00;;;10.20;60.04
45327;BME280;31062;49.678;24.560;2023-04-21T00:59:52;98104.88;;;10.18;60.20
45327;BME280;31062;49.678;24.560;2023-04-21T01:02:38;97913.44;;;8.88;60.16
45327;BME280;31062;49.678;24.560;2023-04-21T01:05:25;97931.84;;;8.93;59.90
45327;BME280;31062;49.678;24.560;2023-04-21T01:08:10;98096.72;;;10.03;59.54
45327;BME280;31062;49.678;24.560;2023-04-21T01:10:56;98055.88;;;9.67;59.73
45327;BME280;31062;49.678;24.560;2023-04-21T01:13:42;98101.63;;;9.95;60.25
45327;BME280;31062;49.678;24.560;2023-04-21T01:16:28;98059.94;;;9.66;60.49
45327;BME280;31062;49.678;24.560;2023-04-21T01:19:13;97951.66;;;8.82;60.57
45327;BME280;31062;49.678;24.560;2023-04-21T01:22:00;98087.06;;;9.68;61.11
45327;BME280;31062;49.678;24.560;2023-04-21T01:24:48;98077.50;;;9.52;61.88
45327;BME280;31062;49.678;24.560;2023-04-21T01:27:34;98094.72;;;9.60;61.89
45327;BME280;31062;49.678;24.560;2023-04-21T01:30:20;97972.97;;;8.72;62.88
45327;BME280;31062;49.678;24.560;2023-04-21T01:33:05;98098.47;;;9.55;62.91
45327;BME280;31062;49.678;24.560;2023-04-21T01:35:51;98127.78;;;9.58;62.89
45327;BME280;31062;49.678;24.560;2023-04-21T01:38:39;98011.75;;;8.98;63.01
45327;BME280;31062;49.678;24.560;2023-04-21T01:41:25;97930.06;;;8.53;63.10
45327;BME280;31062;49.678;24.560;2023-04-21T01:44:11;98064.00;;;9.38;63.70
45327;BME280;31062;49.678;24.560;2023-04-21T01:46:57;98048.09;;;9.29;63.66
45327;BME280;31062;49.678;24.560;2023-04-21T01:49:42;98036.03;;;9.00;63.53
45327;BME280;31062;49.678;24.560;2023-04-21T01:52:30;98086.44;;;9.42;64.03
45327;BME280;31062;49.678;24.560;2023-04-21T01:55:16;98051.06;;;9.24;63.80
45327;BME280;31062;49.678;24.560;2023-04-21T01:58:01;98072.13;;;9.36;63.78
45327;BME280;31062;49.678;24.560;2023-04-21T02:00:47;98056.84;;;9.18;64.01
45327;BME280;31062;49.678;24.560;2023-04-21T02:03:32;98087.53;;;9.13;63.96
45327;BME280;31062;49.678;24.560;2023-04-21T02:06:18;97909.09;;;8.16;63.63
45327;BME280;31062;49.678;24.560;2023-04-21T02:09:04;97901.13;;;8.20;63.87
45327;BME280;31062;49.678;24.560;2023-04-21T02:11:49;98069.81;;;9.16;64.71
45327;BME280;31062;49.678;24.560;2023-04-21T02:14:36;98085.88;;;9.44;65.60
45327;BME280;31062;49.678;24.560;2023-04-21T02:17:24;97949.72;;;8.40;65.19
45327;BME280;31062;49.678;24.560;2023-04-21T02:20:14;97912.41;;;8.14;64.76
45327;BME280;31062;49.678;24.560;2023-04-21T02:22:59;98106.81;;;9.37;64.91
45327;BME280;31062;49.678;24.560;2023-04-21T02:25:45;98070.69;;;9.18;64.90
45327;BME280;31062;49.678;24.560;2023-04-21T02:28:30;98084.03;;;9.29;65.11
45327;BME280;31062;49.678;24.560;2023-04-21T02:31:17;98089.56;;;9.29;65.30
45327;BME280;31062;49.678;24.560;2023-04-21T02:34:02;97890.06;;;8.03;65.60
45327;BME280;31062;49.678;24.560;2023-04-21T02:36:48;98092.00;;;9.25;65.51
45327;BME280;31062;49.678;24.560;2023-04-21T02:39:33;97917.88;;;8.22;65.69
45327;BME280;31062;49.678;24.560;2023-04-21T02:42:22;97900.13;;;8.08;65.81
45327;BME280;31062;49.678;24.560;2023-04-21T02:45:08;98049.47;;;8.86;65.95
45327;BME280;31062;49.678;24.560;2023-04-21T02:47:54;98036.69;;;9.08;66.22
45327;BME280;31062;49.678;24.560;2023-04-21T02:50:41;98094.28;;;9.36;65.92
45327;BME280;31062;49.678;24.560;2023-04-21T02:53:27;98061.56;;;9.25;66.16
45327;BME280;31062;49.678;24.560;2023-04-21T02:56:12;98076.19;;;9.35;65.18
45327;BME280;31062;49.678;24.560;2023-04-21T02:58:58;98028.34;;;8.81;65.07
45327;BME280;31062;49.678;24.560;2023-04-21T03:01:43;98090.22;;;9.37;65.73
45327;BME280;31062;49.678;24.560;2023-04-21T03:04:29;98102.56;;;9.36;64.91
45327;BME280;31062;49.678;24.560;2023-04-21T03:07:17;97883.97;;;8.04;65.15
45327;BME280;31062;49.678;24.560;2023-04-21T03:10:03;98002.41;;;8.77;64.72
45327;BME280;31062;49.678;24.560;2023-04-21T03:12:48;98091.84;;;9.40;64.69
45327;BME280;31062;49.678;24.560;2023-04-21T03:15:34;97911.25;;;8.17;64.61
45327;BME280;31062;49.678;24.560;2023-04-21T03:18:19;98091.59;;;9.29;64.40
45327;BME280;31062;49.678;24.560;2023-04-21T03:21:04;98016.38;;;8.96;65.42
45327;BME280;31062;49.678;24.560;2023-04-21T03:23:51;98080.59;;;9.38;65.10
45327;BME280;31062;49.678;24.560;2023-04-21T03:26:38;97932.84;;;8.36;65.12
45327;BME280;31062;49.678;24.560;2023-04-21T03:29:27;97967.44;;;8.54;64.99
45327;BME280;31062;49.678;24.560;2023-04-21T03:32:12;97905.25;;;8.11;64.36
45327;BME280;31062;49.678;24.560;2023-04-21T03:34:58;97897.63;;;8.02;65.80
45327;BME280;31062;49.678;24.560;2023-04-21T03:37:44;98070.13;;;9.20;64.80
45327;BME280;31062;49.678;24.560;2023-04-21T03:40:30;97881.78;;;7.86;65.37
45327;BME280;31062;49.678;24.560;2023-04-21T03:43:15;97901.91;;;7.96;64.65
45327;BME280;31062;49.678;24.560;2023-04-21T03:46:00;97906.28;;;7.99;64.06
45327;BME280;31062;49.678;24.560;2023-04-21T03:48:46;98035.41;;;8.92;65.61
45327;BME280;31062;49.678;24.560;2023-04-21T03:51:32;97975.41;;;8.50;65.46
45327;BME280;31062;49.678;24.560;2023-04-21T03:54:18;97914.31;;;8.04;65.29
45327;BME280;31062;49.678;24.560;2023-04-21T03:57:03;97956.44;;;8.30;65.78
45327;BME280;31062;49.678;24.560;2023-04-21T03:59:48;97915.88;;;7.98;64.80
45327;BME280;31062;49.678;24.560;2023-04-21T04:02:34;98075.41;;;9.08;65.29
45327;BME280;31062;49.678;24.560;2023-04-21T04:05:20;98088.25;;;9.13;65.41
45327;BME280;31062;49.678;24.560;2023-04-21T04:08:05;98090.88;;;9.11;66.07
45327;BME280;31062;49.678;24.560;2023-04-21T04:10:51;98065.34;;;8.86;65.86
45327;BME280;31062;49.678;24.560;2023-04-21T04:13:36;98104.72;;;9.11;64.60
45327;BME280;31062;49.678;24.560;2023-04-21T04:16:22;98125.50;;;9.12;64.77
45327;BME280;31062;49.678;24.560;2023-04-21T04:19:07;98036.78;;;8.66;64.81
45327;BME280;31062;49.678;24.560;2023-04-21T04:21:53;98091.34;;;9.00;64.67
45327;BME280;31062;49.678;24.560;2023-04-21T04:24:38;97957.31;;;8.15;64.37
45327;BME280;31062;49.678;24.560;2023-04-21T04:27:23;97968.19;;;8.13;64.60
45327;BME280;31062;49.678;24.560;2023-04-21T04:30:10;97977.66;;;8.27;63.86
45327;BME280;31062;49.678;24.560;2023-04-21T04:32:56;97967.97;;;8.18;64.33
45327;BME280;31062;49.678;24.560;2023-04-21T04:35:42;98110.38;;;9.13;64.45
45327;BME280;31062;49.678;24.560;2023-04-21T04:38:27;98110.38;;;9.13;64.32
45327;BME280;31062;49.678;24.560;2023-04-21T04:41:14;97911.81;;;7.99;63.04
45327;BME280;31062;49.678;24.560;2023-04-21T04:44:00;97972.56;;;8.41;63.18
45327;BME280;31062;49.678;24.560;2023-04-21T04:46:49;97916.88;;;8.10;62.01
45327;BME280;31062;49.678;24.560;2023-04-21T04:49:34;98099.72;;;9.44;62.59
45327;BME280;31062;49.678;24.560;2023-04-21T04:52:20;98113.78;;;9.56;61.63
45327;BME280;31062;49.678;24.560;2023-04-21T04:55:07;98004.66;;;8.71;61.03
45327;BME280;31062;49.678;24.560;2023-04-21T04:57:53;98115.38;;;9.76;61.46
45327;BME280;31062;49.678;24.560;2023-04-21T05:00:39;97950.72;;;8.70;60.71
45327;BME280;31062;49.678;24.560;2023-04-21T05:03:24;97991.50;;;8.96;58.74
45327;BME280;31062;49.678;24.560;2023-04-21T05:06:10;98102.28;;;10.03;58.99
45327;BME280;31062;49.678;24.560;2023-04-21T05:08:58;98094.72;;;10.13;57.69
45327;BME280;31062;49.678;24.560;2023-04-21T05:11:43;98101.13;;;10.33;56.67
45327;BME280;31062;49.678;24.560;2023-04-21T05:14:29;98108.94;;;10.54;56.76
45327;BME280;31062;49.678;24.560;2023-04-21T05:17:16;98041.28;;;10.20;55.76
45327;BME280;31062;49.678;24.560;2023-04-21T05:20:06;98100.03;;;10.55;55.07
45327;BME280;31062;49.678;24.560;2023-04-21T05:22:52;97974.25;;;9.95;54.30
45327;BME280;31062;49.678;24.560;2023-04-21T05:25:38;98058.44;;;10.55;54.52
45327;BME280;31062;49.678;24.560;2023-04-21T05:28:23;97990.94;;;10.14;54.35
45327;BME280;31062;49.678;24.560;2023-04-21T05:31:09;98106.84;;;11.00;54.22
45327;BME280;31062;49.678;24.560;2023-04-21T05:33:54;98109.19;;;11.14;53.98
45327;BME280;31062;49.678;24.560;2023-04-21T05:36:41;97965.47;;;10.26;53.51
45327;BME280;31062;49.678;24.560;2023-04-21T05:39:27;98081.59;;;11.16;52.88
45327;BME280;31062;49.678;24.560;2023-04-21T05:42:12;98052.25;;;10.93;52.13
45327;BME280;31062;49.678;24.560;2023-04-21T05:44:58;98126.28;;;11.39;51.54
45327;BME280;31062;49.678;24.560;2023-04-21T05:47:43;98090.63;;;11.45;50.76
45327;BME280;31062;49.678;24.560;2023-04-21T05:50:29;98105.09;;;11.63;50.07
45327;BME280;31062;49.678;24.560;2023-04-21T05:53:18;98100.56;;;11.67;50.63
45327;BME280;31062;49.678;24.560;2023-04-21T05:56:04;97930.38;;;10.57;50.89
45327;BME280;31062;49.678;24.560;2023-04-21T05:58:50;98052.94;;;11.32;50.30
45327;BME280;31062;49.678;24.560;2023-04-21T06:01:35;97931.09;;;10.77;49.85
45327;BME280;31062;49.678;24.560;2023-04-21T06:04:22;98040.91;;;11.68;50.61
45327;BME280;31062;49.678;24.560;2023-04-21T06:07:08;98120.78;;;12.18;50.26
45327;BME280;31062;49.678;24.560;2023-04-21T06:09:54;98113.63;;;12.15;48.33
45327;BME280;31062;49.678;24.560;2023-04-21T06:12:41;98096.34;;;12.26;48.43
45327;BME280;31062;49.678;24.560;2023-04-21T06:15:27;98027.16;;;11.90;48.98
45327;BME280;31062;49.678;24.560;2023-04-21T06:18:12;97959.00;;;11.48;48.53
45327;BME280;31062;49.678;24.560;2023-04-21T06:20:58;97980.41;;;11.76;48.72
45327;BME280;31062;49.678;24.560;2023-04-21T06:23:43;97984.03;;;11.89;48.02
45327;BME280;31062;49.678;24.560;2023-04-21T06:26:29;98063.56;;;12.55;47.05
45327;BME280;31062;49.678;24.560;2023-04-21T06:29:14;97979.25;;;12.10;48.00
45327;BME280;31062;49.678;24.560;2023-04-21T06:32:00;97967.88;;;12.06;46.78
45327;BME280;31062;49.678;24.560;2023-04-21T06:34:46;97925.13;;;11.90;46.64
45327;BME280;31062;49.678;24.560;2023-04-21T06:37:31;98096.31;;;13.09;45.77
45327;BME280;31062;49.678;24.560;2023-04-21T06:40:17;97920.97;;;12.01;45.75
45327;BME280;31062;49.678;24.560;2023-04-21T06:43:03;98071.09;;;13.17;45.58
45327;BME280;31062;49.678;24.560;2023-04-21T06:45:48;98061.22;;;13.25;46.73
45327;BME280;31062;49.678;24.560;2023-04-21T06:48:34;98089.38;;;13.53;44.98
45327;BME280;31062;49.678;24.560;2023-04-21T06:51:19;98096.94;;;13.62;44.70
45327;BME280;31062;49.678;24.560;2023-04-21T06:54:04;98055.22;;;13.40;44.04
45327;BME280;31062;49.678;24.560;2023-04-21T06:56:50;98086.31;;;13.70;43.37
45327;BME280;31062;49.678;24.560;2023-04-21T06:59:36;98091.41;;;13.73;43.95
45327;BME280;31062;49.678;24.560;2023-04-21T07:02:22;98076.13;;;13.63;44.22
45327;BME280;31062;49.678;24.560;2023-04-21T07:05:08;98039.94;;;13.41;44.37
45327;BME280;31062;49.678;24.560;2023-04-21T07:07:54;98053.34;;;13.66;44.40
45327;BME280;31062;49.678;24.560;2023-04-21T07:10:44;98077.38;;;13.95;45.10
45327;BME280;31062;49.678;24.560;2023-04-21T07:13:29;98050.00;;;13.79;43.73
45327;BME280;31062;49.678;24.560;2023-04-21T07:16:15;98052.41;;;13.85;44.94
45327;BME280;31062;49.678;24.560;2023-04-21T07:19:00;98083.72;;;14.18;44.98
45327;BME280;31062;49.678;24.560;2023-04-21T07:21:46;97954.00;;;13.36;45.21
45327;BME280;31062;49.678;24.560;2023-04-21T07:24:31;98086.06;;;14.34;43.29
45327;BME280;31062;49.678;24.560;2023-04-21T07:27:18;98096.34;;;14.31;43.40
45327;BME280;31062;49.678;24.560;2023-04-21T07:30:04;98065.06;;;14.09;43.22
45327;BME280;31062;49.678;24.560;2023-04-21T07:32:50;98042.50;;;13.82;43.84
45327;BME280;31062;49.678;24.560;2023-04-21T07:35:36;98041.78;;;14.16;43.51
45327;BME280;31062;49.678;24.560;2023-04-21T07:38:21;98091.53;;;14.55;41.93
45327;BME280;31062;49.678;24.560;2023-04-21T07:41:11;98088.34;;;14.60;42.77
45327;BME280;31062;49.678;24.560;2023-04-21T07:43:57;98067.75;;;14.54;42.63
45327;BME280;31062;49.678;24.560;2023-04-21T07:46:42;97967.88;;;13.92;44.28
45327;BME280;31062;49.678;24.560;2023-04-21T07:49:28;98051.13;;;14.56;41.06
45327;BME280;31062;49.678;24.560;2023-04-21T07:52:14;97971.84;;;14.01;41.51
45327;BME280;31062;49.678;24.560;2023-04-21T07:55:00;97918.91;;;13.66;41.89
45327;BME280;31062;49.678;24.560;2023-04-21T07:57:46;98012.72;;;14.43;42.08
45327;BME280;31062;49.678;24.560;2023-04-21T08:00:32;98101.19;;;15.00;40.55
45327;BME280;31062;49.678;24.560;2023-04-21T08:03:18;98101.41;;;15.04;40.31
45327;BME280;31062;49.678;24.560;2023-04-21T08:06:06;98102.28;;;15.07;40.03
45327;BME280;31062;49.678;24.560;2023-04-21T08:08:52;97914.31;;;14.05;41.10
45327;BME280;31062;49.678;24.560;2023-04-21T08:11:39;98073.19;;;15.24;41.26
45327;BME280;31062;49.678;24.560;2023-04-21T08:14:24;98033.19;;;15.07;41.08
45327;BME280;31062;49.678;24.560;2023-04-21T08:17:11;98044.22;;;15.17;41.91
45327;BME280;31062;49.678;24.560;2023-04-21T08:19:57;98059.00;;;15.45;41.02
45327;BME280;31062;49.678;24.560;2023-04-21T08:22:43;97938.16;;;14.80;41.03
45327;BME280;31062;49.678;24.560;2023-04-21T08:25:32;98080.78;;;15.72;38.71
45327;BME280;31062;49.678;24.560;2023-04-21T08:28:18;98074.47;;;15.71;38.04
45327;BME280;31062;49.678;24.560;2023-04-21T08:31:03;97912.47;;;14.70;39.81
45327;BME280;31062;49.678;24.560;2023-04-21T08:33:49;98076.00;;;15.61;38.54
45327;BME280;31062;49.678;24.560;2023-04-21T08:36:46;98026.94;;;15.46;38.26
45327;BME280;31062;49.678;24.560;2023-04-21T08:39:32;97909.44;;;14.66;40.29
45327;BME280;31062;49.678;24.560;2023-04-21T08:42:17;98042.16;;;15.68;40.05
45327;BME280;31062;49.678;24.560;2023-04-21T08:45:04;98035.56;;;15.75;38.95
45327;BME280;31062;49.678;24.560;2023-04-21T08:47:50;98050.72;;;15.98;38.06
45327;BME280;31062;49.678;24.560;2023-04-21T08:50:36;98053.84;;;16.04;37.90
45327;BME280;31062;49.678;24.560;2023-04-21T08:53:22;97856.38;;;14.78;39.31
45327;BME280;31062;49.678;24.560;2023-04-21T08:56:08;98011.19;;;15.89;37.57
45327;BME280;31062;49.678;24.560;2023-04-21T08:58:56;97941.28;;;15.37;37.10
45327;BME280;31062;49.678;24.560;2023-04-21T09:04:53;97995.84;;;15.90;36.78
45327;BME280;31062;49.678;24.560;2023-04-21T09:07:42;98007.03;;;15.90;37.17
45327;BME280;31062;49.678;24.560;2023-04-21T09:10:29;97951.06;;;15.63;36.43
45327;BME280;31062;49.678;24.560;2023-04-21T09:13:16;97958.56;;;15.72;36.86
45327;BME280;31062;49.678;24.560;2023-04-21T09:16:04;98006.84;;;16.14;35.62
45327;BME280;31062;49.678;24.560;2023-04-21T09:18:59;97883.97;;;15.36;37.17
45327;BME280;31062;49.678;24.560;2023-04-21T09:21:45;98040.44;;;16.41;35.88
45327;BME280;31062;49.678;24.560;2023-04-21T09:24:31;98001.56;;;16.33;35.07
45327;BME280;31062;49.678;24.560;2023-04-21T09:27:17;97878.13;;;15.57;35.92
45327;BME280;31062;49.678;24.560;2023-04-21T09:30:03;98033.59;;;16.71;35.58
45327;BME280;31062;49.678;24.560;2023-04-21T09:32:55;98047.91;;;16.78;35.14
45327;BME280;31062;49.678;24.560;2023-04-21T09:35:41;97865.91;;;15.64;34.43
45327;BME280;31062;49.678;24.560;2023-04-21T09:38:26;98004.28;;;16.72;35.18
45327;BME280;31062;49.678;24.560;2023-04-21T09:41:16;98029.22;;;16.96;34.27
45327;BME280;31062;49.678;24.560;2023-04-21T09:44:01;98038.41;;;16.98;33.48
45327;BME280;31062;49.678;24.560;2023-04-21T09:46:49;98028.78;;;17.01;33.39
45327;BME280;31062;49.678;24.560;2023-04-21T09:49:38;97868.50;;;15.87;33.44
45327;BME280;31062;49.678;24.560;2023-04-21T09:52:29;98002.31;;;16.61;32.86
45327;BME280;31062;49.678;24.560;2023-04-21T09:55:15;98028.34;;;17.07;33.05
45327;BME280;31062;49.678;24.560;2023-04-21T09:58:04;98020.25;;;17.13;34.78
45327;BME280;31062;49.678;24.560;2023-04-21T10:00:52;98009.22;;;17.17;32.60
45327;BME280;31062;49.678;24.560;2023-04-21T10:03:40;97970.75;;;16.88;32.30
45327;BME280;31062;49.678;24.560;2023-04-21T10:06:26;97983.34;;;17.03;33.12
45327;BME280;31062;49.678;24.560;2023-04-21T10:09:11;97970.97;;;16.79;33.14
45327;BME280;31062;49.678;24.560;2023-04-21T10:12:00;97966.97;;;16.68;33.11
45327;BME280;31062;49.678;24.560;2023-04-21T10:14:53;97991.84;;;17.05;32.55
45327;BME280;31062;49.678;24.560;2023-04-21T10:17:40;97952.72;;;16.78;32.04
45327;BME280;31062;49.678;24.560;2023-04-21T10:20:25;98007.59;;;17.12;32.11
45327;BME280;31062;49.678;24.560;2023-04-21T10:23:11;98004.06;;;17.11;31.40
45327;BME280;31062;49.678;24.560;2023-04-21T10:26:23;97996.38;;;17.12;31.70
45327;BME280;31062;49.678;24.560;2023-04-21T10:29:09;98002.38;;;17.20;31.66
45327;BME280;31062;49.678;24.560;2023-04-21T10:31:56;97934.88;;;16.85;32.85
45327;BME280;31062;49.678;24.560;2023-04-21T10:34:42;97996.97;;;17.24;32.36
45327;BME280;31062;49.678;24.560;2023-04-21T10:37:30;98000.78;;;17.31;32.42
45327;BME280;31062;49.678;24.560;2023-04-21T10:40:33;98013.97;;;17.28;31.71
45327;BME280;31062;49.678;24.560;2023-04-21T10:43:42;97988.66;;;17.26;31.38
45327;BME280;31062;49.678;24.560;2023-04-21T10:46:34;97989.25;;;17.38;34.24
45327;BME280;31062;49.678;24.560;2023-04-21T10:49:24;97998.13;;;17.48;32.61
45327;BME280;31062;49.678;24.560;2023-04-21T10:52:11;97831.97;;;16.40;32.18
45327;BME280;31062;49.678;24.560;2023-04-21T10:57:46;97982.91;;;17.38;33.51
45327;BME280;31062;49.678;24.560;2023-04-21T11:00:31;97982.56;;;17.45;34.52
45327;BME280;31062;49.678;24.560;2023-04-21T11:03:17;97827.09;;;16.41;32.96
45327;BME280;31062;49.678;24.560;2023-04-21T11:06:13;97984.09;;;17.48;32.18
45327;BME280;31062;49.678;24.560;2023-04-21T11:08:58;97984.00;;;17.46;31.31
45327;BME280;31062;49.678;24.560;2023-04-21T11:11:44;97829.16;;;16.40;31.44
45327;BME280;31062;49.678;24.560;2023-04-21T11:14:30;97966.81;;;17.38;31.32
45327;BME280;31062;49.678;24.560;2023-04-21T11:17:20;97854.94;;;16.52;32.54
45327;BME280;31062;49.678;24.560;2023-04-21T11:20:08;97949.59;;;17.14;31.78
45327;BME280;31062;49.678;24.560;2023-04-21T11:22:55;97972.03;;;17.30;32.54
45327;BME280;31062;49.678;24.560;2023-04-21T11:25:44;97856.19;;;16.49;32.43
45327;BME280;31062;49.678;24.560;2023-04-21T11:28:32;97823.41;;;16.22;32.55
45327;BME280;31062;49.678;24.560;2023-04-21T11:31:18;97974.88;;;17.17;31.92
45327;BME280;31062;49.678;24.560;2023-04-21T11:34:04;97940.56;;;16.87;32.06
45327;BME280;31062;49.678;24.560;2023-04-21T11:36:51;97923.47;;;16.81;32.95
45327;BME280;31062;49.678;24.560;2023-04-21T11:39:40;97980.94;;;17.11;33.08
45327;BME280;31062;49.678;24.560;2023-04-21T11:42:26;97831.88;;;16.38;33.05
45327;BME280;31062;49.678;24.560;2023-04-21T11:45:18;97932.16;;;17.16;32.02
45327;BME280;31062;49.678;24.560;2023-04-21T11:48:28;97985.00;;;17.53;31.42
45327;BME280;31062;49.678;24.560;2023-04-21T11:51:15;97972.88;;;17.48;31.98
45327;BME280;31062;49.678;24.560;2023-04-21T11:54:05;97975.97;;;17.54;31.51
45327;BME280;31062;49.678;24.560;2023-04-21T11:56:53;97975.59;;;17.46;32.35
45327;BME280;31062;49.678;24.560;2023-04-21T11:59:38;97844.88;;;16.61;32.63
45327;BME280;31062;49.678;24.560;2023-04-21T12:02:26;97968.84;;;17.51;31.78
45327;BME280;31062;49.678;24.560;2023-04-21T12:05:12;97984.06;;;17.62;31.66
45327;BME280;31062;49.678;24.560;2023-04-21T12:07:59;97969.59;;;17.68;30.87
45327;BME280;31062;49.678;24.560;2023-04-21T12:10:45;97966.88;;;17.70;31.46
45327;BME280;31062;49.678;24.560;2023-04-21T12:13:31;97978.28;;;17.74;30.02
45327;BME280;31062;49.678;24.560;2023-04-21T12:16:17;97935.22;;;17.51;31.38
45327;BME280;31062;49.678;24.560;2023-04-21T12:19:03;97947.53;;;17.60;30.89
45327;BME280;31062;49.678;24.560;2023-04-21T12:21:54;97986.59;;;17.72;31.75
45327;BME280;31062;49.678;24.560;2023-04-21T12:24:44;97962.25;;;17.61;30.80
45327;BME280;31062;49.678;24.560;2023-04-21T12:27:33;97961.41;;;17.58;31.81
45327;BME280;31062;49.678;24.560;2023-04-21T12:30:19;97947.84;;;17.52;31.37
45327;BME280;31062;49.678;24.560;2023-04-21T12:33:07;97948.63;;;17.69;31.14
45327;BME280;31062;49.678;24.560;2023-04-21T12:35:53;97945.91;;;17.71;31.56
45327;BME280;31062;49.678;24.560;2023-04-21T12:38:39;97947.53;;;17.76;31.04
45327;BME280;31062;49.678;24.560;2023-04-21T12:41:25;97931.59;;;17.65;31.46
45327;BME280;31062;49.678;24.560;2023-04-21T12:44:11;97986.75;;;17.60;31.79
45327;BME280;31062;49.678;24.560;2023-04-21T12:46:57;97799.72;;;16.39;31.61
45327;BME280;31062;49.678;24.560;2023-04-21T12:49:43;97955.63;;;17.38;31.49
45327;BME280;31062;49.678;24.560;2023-04-21T12:52:31;97823.66;;;16.42;31.76
45327;BME280;31062;49.678;24.560;2023-04-21T12:55:16;97939.88;;;17.31;31.57
45327;BME280;31062;49.678;24.560;2023-04-21T12:58:02;97853.22;;;16.74;30.92
45327;BME280;31062;49.678;24.560;2023-04-21T13:00:48;97949.13;;;17.49;31.16
45327;BME280;31062;49.678;24.560;2023-04-21T13:03:35;97902.63;;;17.29;30.44
45327;BME280;31062;49.678;24.560;2023-04-21T13:06:21;97955.09;;;17.58;31.20
45327;BME280;31062;49.678;24.560;2023-04-21T13:09:06;97834.56;;;16.95;31.08
45327;BME280;31062;49.678;24.560;2023-04-21T13:11:52;97940.28;;;17.71;30.61
45327;BME280;31062;49.678;24.560;2023-04-21T13:14:38;97922.47;;;17.64;30.79
45327;BME280;31062;49.678;24.560;2023-04-21T13:17:23;97923.63;;;17.43;30.44
45327;BME280;31062;49.678;24.560;2023-04-21T13:20:10;97896.31;;;17.28;29.99
45327;BME280;31062;49.678;24.560;2023-04-21T13:22:55;97862.84;;;17.01;29.82
45327;BME280;31062;49.678;24.560;2023-04-21T13:25:40;97857.81;;;17.13;28.32
45327;BME280;31062;49.678;24.560;2023-04-21T13:28:28;97920.03;;;17.57;29.09
45327;BME280;31062;49.678;24.560;2023-04-21T13:31:14;97919.28;;;17.56;30.50
45327;BME280;31062;49.678;24.560;2023-04-21T13:34:00;97895.31;;;17.37;29.96
45327;BME280;31062;49.678;24.560;2023-04-21T13:36:46;97950.84;;;17.57;29.80
45327;BME280;31062;49.678;24.560;2023-04-21T13:39:31;97930.47;;;17.40;31.16
45327;BME280;31062;49.678;24.560;2023-04-21T13:42:18;97920.94;;;17.45;31.10
45327;BME280;31062;49.678;24.560;2023-04-21T13:45:04;97873.34;;;17.16;31.19
45327;BME280;31062;49.678;24.560;2023-04-21T13:47:50;97887.53;;;17.20;29.60
45327;BME280;31062;49.678;24.560;2023-04-21T13:50:36;97753.47;;;16.52;29.30
45327;BME280;31062;49.678;24.560;2023-04-21T13:53:22;97859.97;;;17.30;30.88
45327;BME280;31062;49.678;24.560;2023-04-21T13:56:07;97897.81;;;17.61;29.83
45327;BME280;31062;49.678;24.560;2023-04-21T13:58:54;97915.00;;;17.69;30.01
45327;BME280;31062;49.678;24.560;2023-04-21T14:01:41;97908.81;;;17.57;30.52
45327;BME280;31062;49.678;24.560;2023-04-21T14:04:27;97912.81;;;17.67;30.77
45327;BME280;31062;49.678;24.560;2023-04-21T14:07:13;97905.03;;;17.66;30.83
45327;BME280;31062;49.678;24.560;2023-04-21T14:10:02;97754.41;;;16.56;30.51
45327;BME280;31062;49.678;24.560;2023-04-21T14:12:48;97949.50;;;17.58;31.60
45327;BME280;31062;49.678;24.560;2023-04-21T14:15:34;97918.41;;;17.51;29.88
45327;BME280;31062;49.678;24.560;2023-04-21T14:18:19;97735.41;;;16.39;30.58
45327;BME280;31062;49.678;24.560;2023-04-21T14:21:05;97765.59;;;16.56;29.45
45327;BME280;31062;49.678;24.560;2023-04-21T14:23:50;97758.06;;;16.45;29.30
45327;BME280;31062;49.678;24.560;2023-04-21T14:26:36;97763.94;;;16.51;30.76
45327;BME280;31062;49.678;24.560;2023-04-21T14:29:21;97893.44;;;17.42;29.80
45327;BME280;31062;49.678;24.560;2023-04-21T14:32:07;97836.00;;;16.96;30.28
45327;BME280;31062;49.678;24.560;2023-04-21T14:34:53;97905.25;;;17.40;30.48
45327;BME280;31062;49.678;24.560;2023-04-21T14:37:39;97894.59;;;17.21;30.73
45327;BME280;31062;49.678;24.560;2023-04-21T14:40:24;97765.13;;;16.17;30.08